sensor_id;sensor_type;location;lat;lon;timestamp;pressure;altitude;pressure_sealevel;temperature;humidity
59168;BME280;70412;55.048;73.268;2023-08-20T00:02:23;99988.69;;;12.63;100.00
59168;BME280;70412;55.048;73.268;2023-08-20T00:05:26;99994.19;;;12.60;100.00
59168;BME280;70412;55.048;73.268;2023-08-20T00:08:28;99994.66;;;12.65;100.00
59168;BME280;70412;55.048;73.268;2023-08-20T00:11:30;99983.09;;;12.56;100.00
59168;BME280;70412;55.048;73.268;2023-08-20T00:17:56;99999.84;;;12.76;100.00
59168;BME280;70412;55.048;73.268;2023-08-20T00:20:59;99999.53;;;12.69;100.00
59168;BME280;70412;55.048;73.268;2023-08-20T00:24:03;100004.28;;;12.75;100.00
59168;BME280;70412;55.048;73.268;2023-08-20T00:27:06;100007.94;;;12.84;100.00
59168;BME280;70412;55.048;73.268;2023-08-20T00:30:09;100014.31;;;12.81;100.00
59168;BME280;70412;55.048;73.268;2023-08-20T00:33:12;100010.44;;;12.85;100.00
59168;BME280;70412;55.048;73.268;2023-08-20T00:36:17;99988.25;;;12.78;100.00
59168;BME280;70412;55.048;73.268;2023-08-20T00:39:19;100005.75;;;12.89;100.00
59168;BME280;70412;55.048;73.268;2023-08-20T00:42:21;100001.97;;;12.82;100.00
59168;BME280;70412;55.048;73.268;2023-08-20T00:45:24;100003.50;;;12.84;100.00
59168;BME280;70412;55.048;73.268;2023-08-20T00:48:27;100010.63;;;12.94;100.00
59168;BME280;70412;55.048;73.268;2023-08-20T00:51:33;100023.06;;;12.92;100.00
59168;BME280;70412;55.048;73.268;2023-08-20T00:54:37;100017.09;;;12.90;100.00
59168;BME280;70412;55.048;73.268;2023-08-20T00:57:41;100010.44;;;12.85;100.00
59168;BME280;70412;55.048;73.268;2023-08-20T01:00:44;100025.72;;;12.92;100.00
59168;BME280;70412;55.048;73.268;2023-08-20T01:03:46;100009.31;;;12.78;100.00
59168;BME280;70412;55.048;73.268;2023-08-20T01:07:39;100020.06;;;12.75;100.00
59168;BME280;70412;55.048;73.268;2023-08-20T01:10:57;100028.56;;;12.79;100.00
59168;BME280;70412;55.048;73.268;2023-08-20T01:14:14;100035.94;;;12.85;100.00
59168;BME280;70412;55.048;73.268;2023-08-20T01:17:17;100038.81;;;13.03;100.00
59168;BME280;70412;55.048;73.268;2023-08-20T01:20:22;100034.91;;;12.97;100.00
59168;BME280;70412;55.048;73.268;2023-08-20T01:30:10;100042.41;;;13.02;100.00
59168;BME280;70412;55.048;73.268;2023-08-20T01:33:14;100039.94;;;13.10;100.00
59168;BME280;70412;55.048;73.268;2023-08-20T01:36:17;100041.69;;;13.21;100.00
59168;BME280;70412;55.048;73.268;2023-08-20T01:39:20;100055.75;;;13.10;100.00
59168;BME280;70412;55.048;73.268;2023-08-20T01:42:22;100055.63;;;13.42;100.00
59168;BME280;70412;55.048;73.268;2023-08-20T01:45:24;100036.72;;;13.27;100.00
59168;BME280;70412;55.048;73.268;2023-08-20T01:48:29;100055.41;;;13.24;100.00
59168;BME280;70412;55.048;73.268;2023-08-20T01:51:33;100040.56;;;13.23;100.00
59168;BME280;70412;55.048;73.268;2023-08-20T01:54:35;100064.34;;;13.33;100.00
59168;BME280;70412;55.048;73.268;2023-08-20T01:57:38;100064.38;;;13.12;100.00
59168;BME280;70412;55.048;73.268;2023-08-20T02:00:40;100068.91;;;13.31;100.00
59168;BME280;70412;55.048;73.268;2023-08-20T02:03:42;100073.56;;;13.27;100.00
59168;BME280;70412;55.048;73.268;2023-08-20T02:06:45;100063.66;;;13.40;100.00
59168;BME280;70412;55.048;73.268;2023-08-20T02:09:49;100088.88;;;13.33;100.00
59168;BME280;70412;55.048;73.268;2023-08-20T02:12:51;100079.06;;;13.14;100.00
59168;BME280;70412;55.048;73.268;2023-08-20T02:15:58;100084.97;;;13.07;100.00
59168;BME280;70412;55.048;73.268;2023-08-20T02:19:03;100060.28;;;12.77;100.00
59168;BME280;70412;55.048;73.268;2023-08-20T02:22:07;100088.16;;;13.10;100.00
59168;BME280;70412;55.048;73.268;2023-08-20T02:25:10;100081.44;;;13.18;100.00
59168;BME280;70412;55.048;73.268;2023-08-20T02:28:12;100069.81;;;12.99;100.00
59168;BME280;70412;55.048;73.268;2023-08-20T02:31:15;100051.09;;;13.23;100.00
59168;BME280;70412;55.048;73.268;2023-08-20T02:34:17;100070.78;;;13.19;100.00
59168;BME280;70412;55.048;73.268;2023-08-20T02:37:22;100082.97;;;13.20;100.00
59168;BME280;70412;55.048;73.268;2023-08-20T02:40:25;100075.66;;;13.44;100.00
59168;BME280;70412;55.048;73.268;2023-08-20T02:43:28;100089.59;;;13.35;100.00
59168;BME280;70412;55.048;73.268;2023-08-20T02:46:31;100095.25;;;13.31;100.00
59168;BME280;70412;55.048;73.268;2023-08-20T02:49:33;100090.53;;;13.34;100.00
59168;BME280;70412;55.048;73.268;2023-08-20T02:52:41;100095.78;;;13.46;100.00
59168;BME280;70412;55.048;73.268;2023-08-20T02:55:44;100106.34;;;13.34;100.00
59168;BME280;70412;55.048;73.268;2023-08-20T02:58:46;100106.47;;;13.54;100.00
59168;BME280;70412;55.048;73.268;2023-08-20T03:01:49;100110.41;;;13.18;100.00
59168;BME280;70412;55.048;73.268;2023-08-20T03:04:52;100090.72;;;13.12;100.00
59168;BME280;70412;55.048;73.268;2023-08-20T03:07:55;100106.31;;;13.46;100.00
59168;BME280;70412;55.048;73.268;2023-08-20T03:10:58;100104.81;;;13.53;100.00
59168;BME280;70412;55.048;73.268;2023-08-20T03:14:00;100110.75;;;13.45;100.00
59168;BME280;70412;55.048;73.268;2023-08-20T03:17:02;100124.38;;;13.60;100.00
59168;BME280;70412;55.048;73.268;2023-08-20T03:20:07;100126.31;;;13.58;100.00
59168;BME280;70412;55.048;73.268;2023-08-20T03:23:10;100134.38;;;13.87;100.00
59168;BME280;70412;55.048;73.268;2023-08-20T03:26:12;100140.00;;;14.62;100.00
59168;BME280;70412;55.048;73.268;2023-08-20T03:29:15;100132.28;;;14.30;100.00
59168;BME280;70412;55.048;73.268;2023-08-20T03:32:18;100138.66;;;14.28;100.00
59168;BME280;70412;55.048;73.268;2023-08-20T03:35:21;100146.56;;;13.78;100.00
59168;BME280;70412;55.048;73.268;2023-08-20T03:38:23;100130.22;;;13.42;100.00
59168;BME280;70412;55.048;73.268;2023-08-20T03:41:26;100161.84;;;13.42;100.00
59168;BME280;70412;55.048;73.268;2023-08-20T03:44:28;100151.47;;;13.62;100.00
59168;BME280;70412;55.048;73.268;2023-08-20T03:47:31;100134.44;;;13.66;100.00
59168;BME280;70412;55.048;73.268;2023-08-20T03:50:34;100151.91;;;13.97;100.00
59168;BME280;70412;55.048;73.268;2023-08-20T03:53:36;100127.34;;;13.97;100.00
59168;BME280;70412;55.048;73.268;2023-08-20T03:56:40;100141.34;;;13.97;100.00
59168;BME280;70412;55.048;73.268;2023-08-20T03:59:42;100146.91;;;14.04;99.01
59168;BME280;70412;55.048;73.268;2023-08-20T04:02:49;100147.28;;;14.30;98.66
59168;BME280;70412;55.048;73.268;2023-08-20T04:05:51;100131.56;;;14.19;97.49
59168;BME280;70412;55.048;73.268;2023-08-20T04:08:53;100136.22;;;14.55;95.24
59168;BME280;70412;55.048;73.268;2023-08-20T04:11:55;100139.78;;;15.51;94.07
59168;BME280;70412;55.048;73.268;2023-08-20T04:14:58;100156.28;;;14.97;95.72
59168;BME280;70412;55.048;73.268;2023-08-20T04:18:00;100143.81;;;14.39;95.99
59168;BME280;70412;55.048;73.268;2023-08-20T04:21:05;100153.34;;;14.71;94.09
59168;BME280;70412;55.048;73.268;2023-08-20T04:24:09;100154.69;;;15.42;94.97
59168;BME280;70412;55.048;73.268;2023-08-20T04:27:11;100150.56;;;16.59;86.39
59168;BME280;70412;55.048;73.268;2023-08-20T04:30:17;100156.03;;;16.03;89.87
59168;BME280;70412;55.048;73.268;2023-08-20T04:33:20;100150.19;;;13.87;97.20
59168;BME280;70412;55.048;73.268;2023-08-20T04:36:22;100151.03;;;14.37;95.34
59168;BME280;70412;55.048;73.268;2023-08-20T04:39:25;100165.28;;;15.23;93.81
59168;BME280;70412;55.048;73.268;2023-08-20T04:42:29;100133.47;;;15.05;91.52
59168;BME280;70412;55.048;73.268;2023-08-20T04:45:33;100111.22;;;14.59;91.51
59168;BME280;70412;55.048;73.268;2023-08-20T04:48:36;100154.97;;;14.52;92.64
59168;BME280;70412;55.048;73.268;2023-08-20T04:51:38;100150.38;;;14.54;92.12
59168;BME280;70412;55.048;73.268;2023-08-20T04:54:41;100160.06;;;14.34;93.25
59168;BME280;70412;55.048;73.268;2023-08-20T04:57:44;100160.16;;;14.14;94.23
59168;BME280;70412;55.048;73.268;2023-08-20T05:00:47;100167.03;;;14.45;92.95
59168;BME280;70412;55.048;73.268;2023-08-20T05:03:50;100176.28;;;14.70;91.11
59168;BME280;70412;55.048;73.268;2023-08-20T05:06:53;100173.22;;;14.84;91.57
59168;BME280;70412;55.048;73.268;2023-08-20T05:09:56;100173.59;;;15.38;91.04
59168;BME280;70412;55.048;73.268;2023-08-20T05:12:58;100157.72;;;15.57;87.68
59168;BME280;70412;55.048;73.268;2023-08-20T05:16:02;100176.47;;;15.73;87.46
59168;BME280;70412;55.048;73.268;2023-08-20T05:19:07;100172.16;;;16.64;85.46
59168;BME280;70412;55.048;73.268;2023-08-20T05:22:10;100164.19;;;16.64;83.43
59168;BME280;70412;55.048;73.268;2023-08-20T05:25:14;100157.97;;;16.56;81.23
59168;BME280;70412;55.048;73.268;2023-08-20T05:28:18;100169.56;;;16.27;81.89
59168;BME280;70412;55.048;73.268;2023-08-20T05:31:22;100173.53;;;16.41;83.29
59168;BME280;70412;55.048;73.268;2023-08-20T05:34:25;100155.13;;;16.22;82.83
59168;BME280;70412;55.048;73.268;2023-08-20T05:37:42;100170.34;;;16.37;82.93
59168;BME280;70412;55.048;73.268;2023-08-20T05:40:44;100170.09;;;17.29;79.57
59168;BME280;70412;55.048;73.268;2023-08-20T05:43:47;100168.09;;;15.78;83.96
59168;BME280;70412;55.048;73.268;2023-08-20T05:46:49;100178.53;;;15.13;85.36
59168;BME280;70412;55.048;73.268;2023-08-20T05:49:53;100182.13;;;15.22;86.31
59168;BME280;70412;55.048;73.268;2023-08-20T05:52:56;100173.19;;;15.99;84.22
59168;BME280;70412;55.048;73.268;2023-08-20T05:55:58;100174.38;;;16.41;81.79
59168;BME280;70412;55.048;73.268;2023-08-20T05:59:02;100168.81;;;17.59;76.77
59168;BME280;70412;55.048;73.268;2023-08-20T06:02:05;100170.34;;;17.44;76.73
59168;BME280;70412;55.048;73.268;2023-08-20T06:05:08;100179.72;;;17.74;75.29
59168;BME280;70412;55.048;73.268;2023-08-20T06:08:11;100175.50;;;17.63;77.83
59168;BME280;70412;55.048;73.268;2023-08-20T06:11:14;100173.66;;;17.90;73.02
59168;BME280;70412;55.048;73.268;2023-08-20T06:14:17;100162.72;;;16.97;75.76
59168;BME280;70412;55.048;73.268;2023-08-20T06:17:22;100181.91;;;16.64;78.77
59168;BME280;70412;55.048;73.268;2023-08-20T06:20:25;100175.00;;;16.53;77.73
59168;BME280;70412;55.048;73.268;2023-08-20T06:23:27;100185.25;;;17.63;75.84
59168;BME280;70412;55.048;73.268;2023-08-20T06:26:30;100173.41;;;17.49;73.47
59168;BME280;70412;55.048;73.268;2023-08-20T06:29:33;100177.50;;;17.26;74.80
59168;BME280;70412;55.048;73.268;2023-08-20T06:32:36;100179.69;;;16.59;77.47
59168;BME280;70412;55.048;73.268;2023-08-20T06:35:39;100164.28;;;16.27;77.18
59168;BME280;70412;55.048;73.268;2023-08-20T06:38:43;100173.06;;;16.73;77.21
59168;BME280;70412;55.048;73.268;2023-08-20T06:41:46;100179.69;;;17.30;76.05
59168;BME280;70412;55.048;73.268;2023-08-20T06:44:55;100173.88;;;17.27;75.22
59168;BME280;70412;55.048;73.268;2023-08-20T06:47:57;100186.69;;;16.33;78.55
59168;BME280;70412;55.048;73.268;2023-08-20T06:51:10;100167.22;;;16.24;79.88
59168;BME280;70412;55.048;73.268;2023-08-20T06:54:15;100190.09;;;15.78;80.87
59168;BME280;70412;55.048;73.268;2023-08-20T06:57:18;100181.06;;;17.34;74.74
59168;BME280;70412;55.048;73.268;2023-08-20T07:00:20;100180.97;;;18.97;71.77
59168;BME280;70412;55.048;73.268;2023-08-20T07:03:23;100160.88;;;18.19;67.85
59168;BME280;70412;55.048;73.268;2023-08-20T07:06:26;100180.91;;;18.56;67.29
59168;BME280;70412;55.048;73.268;2023-08-20T07:09:28;100178.75;;;17.57;74.45
59168;BME280;70412;55.048;73.268;2023-08-20T07:12:31;100181.94;;;16.99;71.30
59168;BME280;70412;55.048;73.268;2023-08-20T07:15:33;100186.25;;;16.83;72.23
59168;BME280;70412;55.048;73.268;2023-08-20T07:18:38;100196.25;;;17.07;72.45
59168;BME280;70412;55.048;73.268;2023-08-20T07:21:41;100184.44;;;17.88;70.54
59168;BME280;70412;55.048;73.268;2023-08-20T07:24:43;100185.09;;;17.21;71.69
59168;BME280;70412;55.048;73.268;2023-08-20T07:27:45;100191.34;;;16.66;72.80
59168;BME280;70412;55.048;73.268;2023-08-20T07:30:48;100200.94;;;16.50;72.70
59168;BME280;70412;55.048;73.268;2023-08-20T07:33:51;100198.22;;;16.87;75.09
59168;BME280;70412;55.048;73.268;2023-08-20T07:36:53;100192.72;;;17.42;71.83
59168;BME280;70412;55.048;73.268;2023-08-20T07:39:55;100185.44;;;18.30;71.27
59168;BME280;70412;55.048;73.268;2023-08-20T07:42:58;100182.44;;;18.24;68.73
59168;BME280;70412;55.048;73.268;2023-08-20T07:46:00;100188.00;;;18.05;66.46
59168;BME280;70412;55.048;73.268;2023-08-20T07:49:03;100201.75;;;17.75;68.08
59168;BME280;70412;55.048;73.268;2023-08-20T07:52:05;100193.78;;;17.49;69.26
59168;BME280;70412;55.048;73.268;2023-08-20T07:55:08;100202.94;;;18.06;67.64
59168;BME280;70412;55.048;73.268;2023-08-20T07:58:10;100194.94;;;18.91;69.15
59168;BME280;70412;55.048;73.268;2023-08-20T08:01:12;100201.75;;;18.01;68.64
59168;BME280;70412;55.048;73.268;2023-08-20T08:04:15;100193.09;;;17.65;67.03
59168;BME280;70412;55.048;73.268;2023-08-20T08:07:17;100201.03;;;17.03;68.67
59168;BME280;70412;55.048;73.268;2023-08-20T08:10:20;100204.03;;;16.90;70.48
59168;BME280;70412;55.048;73.268;2023-08-20T08:13:23;100209.03;;;16.93;70.59
59168;BME280;70412;55.048;73.268;2023-08-20T08:16:25;100211.22;;;16.80;71.06
59168;BME280;70412;55.048;73.268;2023-08-20T08:19:28;100212.53;;;17.73;65.21
59168;BME280;70412;55.048;73.268;2023-08-20T08:22:30;100208.44;;;18.13;64.82
59168;BME280;70412;55.048;73.268;2023-08-20T08:25:32;100215.88;;;18.43;62.30
59168;BME280;70412;55.048;73.268;2023-08-20T08:28:35;100194.03;;;17.20;64.16
59168;BME280;70412;55.048;73.268;2023-08-20T08:31:37;100214.63;;;16.90;65.94
59168;BME280;70412;55.048;73.268;2023-08-20T08:34:40;100221.84;;;18.03;64.70
59168;BME280;70412;55.048;73.268;2023-08-20T08:37:42;100216.19;;;17.54;66.98
59168;BME280;70412;55.048;73.268;2023-08-20T08:40:45;100218.84;;;17.54;66.90
59168;BME280;70412;55.048;73.268;2023-08-20T08:43:49;100226.69;;;17.82;66.92
59168;BME280;70412;55.048;73.268;2023-08-20T08:46:51;100228.03;;;17.86;67.74
59168;BME280;70412;55.048;73.268;2023-08-20T08:49:55;100217.78;;;17.47;67.91
59168;BME280;70412;55.048;73.268;2023-08-20T08:53:01;100233.66;;;17.21;69.57
59168;BME280;70412;55.048;73.268;2023-08-20T08:56:04;100229.16;;;18.86;65.48
59168;BME280;70412;55.048;73.268;2023-08-20T08:59:07;100211.16;;;17.95;66.16
59168;BME280;70412;55.048;73.268;2023-08-20T09:02:12;100233.63;;;18.09;64.90
59168;BME280;70412;55.048;73.268;2023-08-20T09:05:14;100217.63;;;17.92;64.72
59168;BME280;70412;55.048;73.268;2023-08-20T09:08:21;100220.66;;;17.72;63.70
59168;BME280;70412;55.048;73.268;2023-08-20T09:11:34;100225.91;;;17.28;63.48
59168;BME280;70412;55.048;73.268;2023-08-20T09:14:37;100233.22;;;18.64;61.67
59168;BME280;70412;55.048;73.268;2023-08-20T09:17:43;100211.19;;;18.71;61.00
59168;BME280;70412;55.048;73.268;2023-08-20T09:20:47;100228.91;;;18.55;62.22
59168;BME280;70412;55.048;73.268;2023-08-20T09:23:51;100233.88;;;18.23;62.08
59168;BME280;70412;55.048;73.268;2023-08-20T09:26:59;100226.78;;;17.98;59.75
59168;BME280;70412;55.048;73.268;2023-08-20T09:30:02;100231.69;;;17.85;62.14
59168;BME280;70412;55.048;73.268;2023-08-20T09:33:11;100242.13;;;17.86;64.75
59168;BME280;70412;55.048;73.268;2023-08-20T09:36:13;100218.13;;;17.09;64.43
59168;BME280;70412;55.048;73.268;2023-08-20T09:39:16;100248.50;;;17.14;65.98
59168;BME280;70412;55.048;73.268;2023-08-20T09:42:18;100251.59;;;17.10;67.89
59168;BME280;70412;55.048;73.268;2023-08-20T09:45:21;100236.66;;;17.44;64.08
59168;BME280;70412;55.048;73.268;2023-08-20T09:48:24;100243.31;;;17.92;62.58
59168;BME280;70412;55.048;73.268;2023-08-20T09:51:33;100238.34;;;18.57;59.59
59168;BME280;70412;55.048;73.268;2023-08-20T09:55:00;100231.09;;;18.75;59.11
59168;BME280;70412;55.048;73.268;2023-08-20T09:58:07;100230.31;;;18.83;57.46
59168;BME280;70412;55.048;73.268;2023-08-20T10:01:11;100241.28;;;18.88;58.63
59168;BME280;70412;55.048;73.268;2023-08-20T10:04:15;100237.13;;;18.94;59.18
59168;BME280;70412;55.048;73.268;2023-08-20T10:07:20;100247.53;;;17.77;61.76
59168;BME280;70412;55.048;73.268;2023-08-20T10:10:26;100227.16;;;17.59;62.38
59168;BME280;70412;55.048;73.268;2023-08-20T10:13:29;100253.47;;;18.31;62.92
59168;BME280;70412;55.048;73.268;2023-08-20T10:16:33;100236.78;;;18.46;59.21
59168;BME280;70412;55.048;73.268;2023-08-20T10:19:37;100241.63;;;19.01;57.18
59168;BME280;70412;55.048;73.268;2023-08-20T10:22:44;100242.66;;;19.17;57.00
59168;BME280;70412;55.048;73.268;2023-08-20T10:25:47;100240.53;;;19.53;57.49
59168;BME280;70412;55.048;73.268;2023-08-20T10:28:49;100244.31;;;19.18;56.38
59168;BME280;70412;55.048;73.268;2023-08-20T10:31:54;100243.34;;;18.60;57.01
59168;BME280;70412;55.048;73.268;2023-08-20T10:34:57;100243.44;;;17.82;57.83
59168;BME280;70412;55.048;73.268;2023-08-20T10:38:16;100237.34;;;17.90;58.17
59168;BME280;70412;55.048;73.268;2023-08-20T10:41:27;100248.06;;;17.62;60.55
59168;BME280;70412;55.048;73.268;2023-08-20T10:45:08;100251.22;;;17.22;64.12
59168;BME280;70412;55.048;73.268;2023-08-20T10:48:13;100248.06;;;17.62;60.53
59168;BME280;70412;55.048;73.268;2023-08-20T10:51:38;100244.84;;;18.55;58.51
59168;BME280;70412;55.048;73.268;2023-08-20T10:54:42;100221.50;;;18.91;57.22
59168;BME280;70412;55.048;73.268;2023-08-20T10:57:44;100242.47;;;18.17;59.26
59168;BME280;70412;55.048;73.268;2023-08-20T11:04:19;100241.44;;;18.10;59.28
59168;BME280;70412;55.048;73.268;2023-08-20T11:07:25;100242.25;;;18.45;56.70
59168;BME280;70412;55.048;73.268;2023-08-20T11:10:29;100237.06;;;17.75;57.06
59168;BME280;70412;55.048;73.268;2023-08-20T11:13:32;100236.28;;;18.43;56.76
59168;BME280;70412;55.048;73.268;2023-08-20T11:16:35;100232.81;;;18.93;54.63
59168;BME280;70412;55.048;73.268;2023-08-20T11:19:38;100233.03;;;21.06;50.20
59168;BME280;70412;55.048;73.268;2023-08-20T11:22:41;100233.66;;;22.06;46.55
59168;BME280;70412;55.048;73.268;2023-08-20T11:25:45;100233.75;;;21.61;46.19
59168;BME280;70412;55.048;73.268;2023-08-20T11:28:47;100241.59;;;21.62;44.57
59168;BME280;70412;55.048;73.268;2023-08-20T11:31:50;100236.34;;;22.21;43.79
59168;BME280;70412;55.048;73.268;2023-08-20T11:34:53;100239.66;;;21.56;46.17
59168;BME280;70412;55.048;73.268;2023-08-20T11:37:55;100239.25;;;21.82;45.75
59168;BME280;70412;55.048;73.268;2023-08-20T11:40:58;100215.19;;;21.30;44.27
59168;BME280;70412;55.048;73.268;2023-08-20T11:44:01;100218.09;;;22.39;43.37
59168;BME280;70412;55.048;73.268;2023-08-20T11:47:14;100226.81;;;21.37;47.26
59168;BME280;70412;55.048;73.268;2023-08-20T11:50:20;100224.34;;;21.50;46.15
59168;BME280;70412;55.048;73.268;2023-08-20T11:53:22;100229.69;;;20.50;48.44
59168;BME280;70412;55.048;73.268;2023-08-20T11:56:27;100229.66;;;18.97;52.51
59168;BME280;70412;55.048;73.268;2023-08-20T11:59:32;100231.13;;;20.06;50.81
59168;BME280;70412;55.048;73.268;2023-08-20T12:02:35;100207.69;;;20.48;48.53
59168;BME280;70412;55.048;73.268;2023-08-20T12:05:41;100216.50;;;20.49;47.12
59168;BME280;70412;55.048;73.268;2023-08-20T12:08:49;100230.06;;;20.23;48.13
59168;BME280;70412;55.048;73.268;2023-08-20T12:11:52;100223.56;;;20.73;48.82
59168;BME280;70412;55.048;73.268;2023-08-20T12:14:57;100227.91;;;20.66;48.67
59168;BME280;70412;55.048;73.268;2023-08-20T12:18:03;100219.44;;;20.62;48.57
59168;BME280;70412;55.048;73.268;2023-08-20T12:21:08;100221.88;;;19.77;50.10
59168;BME280;70412;55.048;73.268;2023-08-20T12:27:13;100223.88;;;19.83;50.11
59168;BME280;70412;55.048;73.268;2023-08-20T12:30:16;100222.53;;;19.87;50.03
59168;BME280;70412;55.048;73.268;2023-08-20T12:33:18;100230.06;;;19.67;51.55
59168;BME280;70412;55.048;73.268;2023-08-20T12:36:22;100231.03;;;19.75;51.67
59168;BME280;70412;55.048;73.268;2023-08-20T12:39:24;100224.28;;;20.11;50.23
59168;BME280;70412;55.048;73.268;2023-08-20T12:42:27;100175.03;;;19.35;50.56
59168;BME280;70412;55.048;73.268;2023-08-20T12:45:31;100230.47;;;19.95;50.42
59168;BME280;70412;55.048;73.268;2023-08-20T12:48:33;100235.19;;;19.69;52.06
59168;BME280;70412;55.048;73.268;2023-08-20T12:51:36;100225.16;;;18.98;50.91
59168;BME280;70412;55.048;73.268;2023-08-20T12:54:38;100224.41;;;18.55;54.56
59168;BME280;70412;55.048;73.268;2023-08-20T12:57:53;100232.38;;;18.21;55.22
59168;BME280;70412;55.048;73.268;2023-08-20T13:00:57;100213.25;;;17.40;57.53
59168;BME280;70412;55.048;73.268;2023-08-20T13:03:59;100232.44;;;17.77;57.35
59168;BME280;70412;55.048;73.268;2023-08-20T13:07:03;100226.78;;;17.98;56.47
59168;BME280;70412;55.048;73.268;2023-08-20T13:10:06;100233.31;;;18.12;57.11
59168;BME280;70412;55.048;73.268;2023-08-20T13:13:11;100225.44;;;17.68;57.89
59168;BME280;70412;55.048;73.268;2023-08-20T13:16:14;100235.25;;;17.58;59.35
59168;BME280;70412;55.048;73.268;2023-08-20T13:19:17;100233.28;;;17.78;58.87
59168;BME280;70412;55.048;73.268;2023-08-20T13:22:19;100230.75;;;17.68;59.65
59168;BME280;70412;55.048;73.268;2023-08-20T13:25:22;100233.75;;;17.73;59.88
59168;BME280;70412;55.048;73.268;2023-08-20T13:28:25;100237.59;;;17.61;59.00
59168;BME280;70412;55.048;73.268;2023-08-20T13:31:27;100246.44;;;17.26;60.19
59168;BME280;70412;55.048;73.268;2023-08-20T13:34:29;100234.09;;;16.99;60.54
59168;BME280;70412;55.048;73.268;2023-08-20T13:37:32;100244.28;;;17.47;60.56
59168;BME280;70412;55.048;73.268;2023-08-20T13:40:34;100239.25;;;17.18;62.19
59168;BME280;70412;55.048;73.268;2023-08-20T13:43:37;100233.56;;;16.95;62.14
59168;BME280;70412;55.048;73.268;2023-08-20T13:46:39;100245.38;;;16.83;61.89
59168;BME280;70412;55.048;73.268;2023-08-20T13:49:44;100240.69;;;17.48;60.22
59168;BME280;70412;55.048;73.268;2023-08-20T13:52:47;100244.72;;;17.17;62.76
59168;BME280;70412;55.048;73.268;2023-08-20T13:55:50;100246.59;;;17.07;63.68
59168;BME280;70412;55.048;73.268;2023-08-20T13:58:53;100255.97;;;16.83;63.27
59168;BME280;70412;55.048;73.268;2023-08-20T14:01:55;100257.78;;;16.45;65.30
59168;BME280;70412;55.048;73.268;2023-08-20T14:04:58;100259.44;;;16.47;65.47
59168;BME280;70412;55.048;73.268;2023-08-20T14:08:01;100266.19;;;16.04;65.65
59168;BME280;70412;55.048;73.268;2023-08-20T14:11:03;100266.94;;;15.58;68.05
59168;BME280;70412;55.048;73.268;2023-08-20T14:14:06;100255.53;;;15.09;69.84
59168;BME280;70412;55.048;73.268;2023-08-20T14:17:08;100271.75;;;14.85;70.06
59168;BME280;70412;55.048;73.268;2023-08-20T14:20:11;100275.38;;;14.53;71.79
59168;BME280;70412;55.048;73.268;2023-08-20T14:23:13;100251.38;;;14.26;73.47
59168;BME280;70412;55.048;73.268;2023-08-20T14:26:16;100225.53;;;13.89;75.08
59168;BME280;70412;55.048;73.268;2023-08-20T14:29:18;100282.66;;;14.00;76.01
59168;BME280;70412;55.048;73.268;2023-08-20T14:32:20;100267.56;;;13.81;76.57
59168;BME280;70412;55.048;73.268;2023-08-20T14:35:23;100284.13;;;13.72;77.80
59168;BME280;70412;55.048;73.268;2023-08-20T14:38:27;100277.88;;;13.52;79.30
59168;BME280;70412;55.048;73.268;2023-08-20T14:41:29;100270.63;;;13.33;80.21
59168;BME280;70412;55.048;73.268;2023-08-20T14:44:32;100289.56;;;13.27;81.33
59168;BME280;70412;55.048;73.268;2023-08-20T14:47:34;100297.78;;;13.13;82.30
59168;BME280;70412;55.048;73.268;2023-08-20T14:50:37;100304.59;;;13.04;82.59
59168;BME280;70412;55.048;73.268;2023-08-20T14:53:39;100302.94;;;13.03;82.53
59168;BME280;70412;55.048;73.268;2023-08-20T14:56:41;100301.66;;;12.87;83.55
59168;BME280;70412;55.048;73.268;2023-08-20T14:59:44;100310.50;;;12.85;83.78
59168;BME280;70412;55.048;73.268;2023-08-20T15:02:46;100302.84;;;12.82;83.42
59168;BME280;70412;55.048;73.268;2023-08-20T15:05:49;100303.44;;;12.75;83.69
59168;BME280;70412;55.048;73.268;2023-08-20T15:08:51;100311.00;;;12.68;84.64
59168;BME280;70412;55.048;73.268;2023-08-20T15:11:54;100307.63;;;12.89;83.20
59168;BME280;70412;55.048;73.268;2023-08-20T15:14:56;100322.94;;;12.83;83.93
59168;BME280;70412;55.048;73.268;2023-08-20T15:17:59;100315.63;;;12.87;83.39
59168;BME280;70412;55.048;73.268;2023-08-20T15:21:02;100317.91;;;12.92;82.89
59168;BME280;70412;55.048;73.268;2023-08-20T15:24:05;100322.38;;;12.80;84.48
59168;BME280;70412;55.048;73.268;2023-08-20T15:27:07;100318.88;;;12.91;83.44
59168;BME280;70412;55.048;73.268;2023-08-20T15:30:10;100326.53;;;12.60;85.04
59168;BME280;70412;55.048;73.268;2023-08-20T15:33:12;100331.22;;;12.57;85.27
59168;BME280;70412;55.048;73.268;2023-08-20T15:36:15;100305.97;;;12.20;87.40
59168;BME280;70412;55.048;73.268;2023-08-20T15:39:18;100334.91;;;12.32;87.14
59168;BME280;70412;55.048;73.268;2023-08-20T15:42:20;100340.06;;;12.33;87.35
59168;BME280;70412;55.048;73.268;2023-08-20T15:45:23;100317.38;;;11.97;89.05
59168;BME280;70412;55.048;73.268;2023-08-20T15:48:26;100333.44;;;12.16;87.99
59168;BME280;70412;55.048;73.268;2023-08-20T15:51:28;100341.59;;;12.24;88.14
59168;BME280;70412;55.048;73.268;2023-08-20T15:54:30;100335.63;;;12.22;88.27
59168;BME280;70412;55.048;73.268;2023-08-20T15:57:33;100340.38;;;12.17;88.88
59168;BME280;70412;55.048;73.268;2023-08-20T16:00:35;100338.78;;;12.04;89.08
59168;BME280;70412;55.048;73.268;2023-08-20T16:03:39;100335.50;;;11.89;90.14